Terminal Aerodrome Forecast
Issued by NWS Grand Forks, ND

Home | Current Version | Previous Version | Graphics & Text | Print | Product List | Glossary On
Versions: 1 2 3 4 5 6 7 8 9 10 11 12 13 14 15 16 17 18 19 20 21 22 23 24 25
000
FTUS43 KFGF 050940 AAA
TAFGFK
TAF AMD
KGFK 050940Z 0510/0606 21006KT P6SM BKN005
     FM051500 12005KT P6SM OVC006
     FM052100 00000KT 3SM -SN OVC003
     FM060000 28008KT 1 1/2SM -SN OVC008
     FM060500 28016KT 1SM -SN OVC010=

USA.gov is the U.S. government's official web portal to all federal, state and local government web resources and services.